الصفحة الرئيسية
METAR-TAF:

METAR-TAF

مطار :

Perry Stokes Airport

Trinidad, كولورادو, الولايات المتحدة

دائرة عرض: 37-16N, خط طول: 104-26W, ارتفاع: 1756 متر

مراقبة الطقس الحالي

تاريخ ووقت الإصدار 50 دقيقة قبل الساعة 03:54UTC
ريح 7 عقدة من الغرب
درجة الحرارة 22°درجة مئوية
الرطوبة 57%
ضغط 1024 hPa
الرؤية: 16.1 كم
سماء صافية

METAR: KTAD 180354Z AUTO 27007KT 10SM CLR 22/13 A3025 RMK AO2 SLP153 T02170128

زمن: 22:44 (04:44 UTC)


TAF: مفقودة

أرصاد الطقس والتوقعات من أكثر من 4000 مطار (تقارير الطقس للمطار METAR والتنبؤ بالطقس بالمطارTAF).

المحطات المتاحة هي النقط الصفراء والحمراء على الخريطة.

حرك المؤشر فوق النقطة لمعرفة اسم المحطة.

ثم انقر لمعرفة أرصاد وتوقعات الطقس.

لتغيير الخارطة: اضغط على الأزرار الخضراء مع رمز الصليب الأسود للتكبير. على الزر الأخضر مع شرطة للتصغير، أو على الأسهم الخضراء للخرائط المجاورة.


METAR-TAF: